createdAt,value
2023-04-04T00:01:49.588Z,2.00
2023-04-04T00:06:56.059Z,2.03
2023-04-04T00:12:01.640Z,2.20
2023-04-04T00:17:07.465Z,2.30
2023-04-04T00:22:14.708Z,2.23
2023-04-04T00:27:20.388Z,2.60
2023-04-04T00:32:26.294Z,2.60
2023-04-04T00:37:32.041Z,1.97
2023-04-04T00:42:37.782Z,2.27
2023-04-04T00:47:45.663Z,2.23
2023-04-04T00:52:51.634Z,2.20
2023-04-04T00:57:57.405Z,2.07
2023-04-04T01:03:04.057Z,1.77
2023-04-04T01:08:09.662Z,1.63
2023-04-04T01:13:16.597Z,2.33
2023-04-04T01:18:25.054Z,1.87
2023-04-04T01:23:48.535Z,2.10
2023-04-04T01:28:58.908Z,2.30
2023-04-04T01:34:16.831Z,2.43
2023-04-04T01:39:28.088Z,2.30
2023-04-04T01:44:33.984Z,2.00
2023-04-04T01:49:39.765Z,1.70
2023-04-04T01:54:45.463Z,1.80
2023-04-04T01:59:51.137Z,2.03
2023-04-04T02:04:56.836Z,2.00
2023-04-04T02:10:02.433Z,1.87
2023-04-04T02:15:09.027Z,1.80
2023-04-04T02:20:14.505Z,1.50
2023-04-04T02:25:20.861Z,2.33
2023-04-04T02:30:27.304Z,1.60
2023-04-04T02:35:33.172Z,1.83
2023-04-04T02:40:40.960Z,1.50
2023-04-04T02:45:51.463Z,1.63
2023-04-04T02:50:58.839Z,1.47
2023-04-04T02:56:05.354Z,1.60
2023-04-04T03:01:11.118Z,2.10
2023-04-04T03:06:17.067Z,2.43
2023-04-04T03:11:24.318Z,2.00
2023-04-04T03:16:31.303Z,2.33
2023-04-04T03:21:37.062Z,2.50
2023-04-04T03:26:42.624Z,2.03
2023-04-04T03:31:48.746Z,2.13
2023-04-04T03:36:54.461Z,2.40
2023-04-04T03:42:01.484Z,2.33
2023-04-04T03:47:07.184Z,2.20
2023-04-04T03:52:13.032Z,1.83
2023-04-04T03:57:18.790Z,2.80
2023-04-04T04:02:24.442Z,2.33
2023-04-04T04:07:30.090Z,2.10
2023-04-04T04:12:36.799Z,2.67
2023-04-04T04:17:42.734Z,2.43
2023-04-04T04:22:51.015Z,2.03
2023-04-04T04:27:58.082Z,2.77
2023-04-04T04:33:04.584Z,2.70
2023-04-04T04:38:12.877Z,2.47
2023-04-04T04:43:19.082Z,2.70
2023-04-04T04:48:26.344Z,2.93
2023-04-04T04:53:33.549Z,2.30
2023-04-04T04:58:39.072Z,2.50
2023-04-04T05:03:46.870Z,2.30
2023-04-04T05:08:54.062Z,2.27
2023-04-04T05:14:02.075Z,2.80
2023-04-04T05:19:09.279Z,2.83
2023-04-04T05:24:17.518Z,2.43
2023-04-04T05:29:23.152Z,2.37
2023-04-04T05:34:30.216Z,3.17
2023-04-04T05:39:36.757Z,3.03
2023-04-04T05:44:44.704Z,3.53
2023-04-04T05:49:50.692Z,3.20
2023-04-04T05:54:57.564Z,3.87
2023-04-04T06:00:06.227Z,3.20
2023-04-04T06:05:13.541Z,3.73
2023-04-04T06:10:19.294Z,3.50
2023-04-04T06:15:25.594Z,3.43
2023-04-04T06:20:31.327Z,4.10
2023-04-04T06:25:39.981Z,3.47
2023-04-04T06:30:46.142Z,3.23
2023-04-04T06:35:53.251Z,3.13
2023-04-04T06:40:59.542Z,2.87
2023-04-04T06:46:05.542Z,2.70
2023-04-04T06:51:11.654Z,3.00
2023-04-04T06:56:18.855Z,2.63
2023-04-04T07:01:24.457Z,2.00
2023-04-04T07:06:29.990Z,2.50
2023-04-04T07:11:35.564Z,2.13
2023-04-04T07:16:41.054Z,1.83
2023-04-04T07:21:46.690Z,3.00
2023-04-04T07:26:52.440Z,2.37
2023-04-04T07:31:58.074Z,2.50
2023-04-04T07:37:03.895Z,3.63
2023-04-04T07:42:18.543Z,3.07
2023-04-04T07:47:24.087Z,2.40
2023-04-04T07:52:29.692Z,2.00
2023-04-04T07:57:39.831Z,2.77
2023-04-04T08:02:45.798Z,2.47
2023-04-04T08:07:51.498Z,1.80
2023-04-04T08:12:59.159Z,1.80
2023-04-04T08:18:04.840Z,1.60
2023-04-04T08:23:10.975Z,1.73
2023-04-04T08:28:16.500Z,2.70
2023-04-04T08:33:34.255Z,2.13
2023-04-04T08:38:32.992Z,1.90
2023-04-04T08:43:41.645Z,1.50
2023-04-04T08:48:48.786Z,1.40
2023-04-04T08:53:55.373Z,1.10
2023-04-04T08:59:01.123Z,1.13
2023-04-04T09:04:07.497Z,0.90
2023-04-04T09:09:14.735Z,3.23
2023-04-04T09:14:22.297Z,2.90
2023-04-04T09:19:27.738Z,1.23
2023-04-04T09:24:43.806Z,2.00
2023-04-04T09:29:50.047Z,2.53
2023-04-04T09:34:56.616Z,1.20
2023-04-04T09:40:03.079Z,1.20
2023-04-04T09:45:11.674Z,1.00
2023-04-04T09:50:24.933Z,0.60
2023-04-04T09:55:36.647Z,0.90
2023-04-04T10:00:44.976Z,1.20
2023-04-04T10:06:06.987Z,1.27
2023-04-04T10:11:12.829Z,1.10
2023-04-04T10:16:20.111Z,1.20
2023-04-04T10:21:25.728Z,0.83
2023-04-04T10:26:31.450Z,1.57
2023-04-04T10:31:41.162Z,0.70
2023-04-04T10:37:13.153Z,0.80
2023-04-04T10:42:20.133Z,1.20
2023-04-04T10:47:29.501Z,1.40
2023-04-04T10:52:36.335Z,0.90
2023-04-04T10:57:44.890Z,1.10
2023-04-04T11:02:57.080Z,1.10
2023-04-04T11:08:08.556Z,1.30
2023-04-04T11:13:21.810Z,1.63
2023-04-04T11:18:42.420Z,0.90
2023-04-04T11:24:02.274Z,1.30
2023-04-04T11:29:12.886Z,1.50
2023-04-04T11:34:32.751Z,1.30
2023-04-04T11:39:41.302Z,1.20
2023-04-04T11:45:04.432Z,1.27
2023-04-04T11:50:12.767Z,1.37
2023-04-04T11:55:20.147Z,1.53
2023-04-04T12:00:36.057Z,1.00
2023-04-04T12:05:44.023Z,1.20
2023-04-04T12:10:51.169Z,1.67
2023-04-04T12:15:57.831Z,1.50
2023-04-04T12:21:03.704Z,1.50
2023-04-04T12:26:11.373Z,1.27
2023-04-04T12:31:17.942Z,0.90
2023-04-04T12:36:29.918Z,1.30
2023-04-04T12:41:36.929Z,1.10
2023-04-04T12:46:47.789Z,1.13
2023-04-04T12:51:55.288Z,1.20
2023-04-04T12:57:04.204Z,1.85
2023-04-04T13:02:12.515Z,1.20
2023-04-04T13:07:28.829Z,1.47
2023-04-04T13:12:57.128Z,1.77
2023-04-04T13:18:05.769Z,1.30
2023-04-04T13:23:11.659Z,1.20
2023-04-04T13:28:17.337Z,1.33
2023-04-04T13:33:22.835Z,1.73
2023-04-04T13:38:29.899Z,1.60
2023-04-04T13:43:35.488Z,1.50
2023-04-04T13:48:42.010Z,1.50
2023-04-04T13:53:49.277Z,1.40
2023-04-04T13:58:54.907Z,1.17
2023-04-04T14:04:05.261Z,1.60
2023-04-04T14:09:07.756Z,1.63
2023-04-04T14:14:13.369Z,1.63
2023-04-04T14:19:18.832Z,1.67
2023-04-04T14:24:24.671Z,1.50
2023-04-04T14:29:30.167Z,0.70
2023-04-04T14:34:35.659Z,1.30
2023-04-04T14:39:41.098Z,1.13
2023-04-04T14:44:46.706Z,0.80
2023-04-04T14:49:54.189Z,0.97
2023-04-04T14:55:01.094Z,1.17
2023-04-04T15:00:08.009Z,0.97
2023-04-04T15:05:14.504Z,1.27
2023-04-04T15:10:20.076Z,1.50
2023-04-04T15:15:29.121Z,1.37
2023-04-04T15:20:37.986Z,1.53
2023-04-04T15:25:43.539Z,1.23
2023-04-04T15:30:49.174Z,2.07
2023-04-04T15:35:54.774Z,1.67
2023-04-04T15:41:00.665Z,1.60
2023-04-04T15:46:06.643Z,0.97
2023-04-04T15:51:12.619Z,1.20
2023-04-04T15:56:18.039Z,1.13
2023-04-04T16:01:24.202Z,1.57
2023-04-04T16:06:31.343Z,1.87
2023-04-04T16:11:37.231Z,1.60
2023-04-04T16:16:42.871Z,1.73
2023-04-04T16:21:49.452Z,1.67
2023-04-04T16:26:54.906Z,2.83
2023-04-04T16:32:00.683Z,1.67
2023-04-04T16:37:06.557Z,1.80
2023-04-04T16:42:12.081Z,3.13
2023-04-04T16:47:17.519Z,2.90
2023-04-04T16:52:23.162Z,2.70
2023-04-04T16:57:28.808Z,4.60
2023-04-04T17:02:34.457Z,2.43
2023-04-04T17:07:40.078Z,4.63
2023-04-04T17:12:45.895Z,5.27
2023-04-04T17:17:52.201Z,2.20
2023-04-04T17:22:57.941Z,3.43
2023-04-04T17:28:04.607Z,3.57
2023-04-04T17:33:10.189Z,3.63
2023-04-04T17:38:16.016Z,3.77
2023-04-04T17:43:22.234Z,2.80
2023-04-04T17:48:29.726Z,3.77
2023-04-04T17:53:35.162Z,5.53
2023-04-04T17:58:41.935Z,2.90
2023-04-04T18:03:47.835Z,4.10
2023-04-04T18:08:53.473Z,2.00
2023-04-04T18:13:59.065Z,2.27
2023-04-04T18:19:04.604Z,3.17
2023-04-04T18:24:11.974Z,2.90
2023-04-04T18:29:17.666Z,3.20
2023-04-04T18:34:23.178Z,4.37
2023-04-04T18:39:29.253Z,3.27
2023-04-04T18:44:35.032Z,2.90
2023-04-04T18:49:41.009Z,2.63
2023-04-04T18:54:47.194Z,2.03
2023-04-04T18:59:52.862Z,2.20
2023-04-04T19:05:00.968Z,2.10
2023-04-04T19:10:08.177Z,1.50
2023-04-04T19:15:13.850Z,1.97
2023-04-04T19:20:19.917Z,1.80
2023-04-04T19:25:25.707Z,2.13
2023-04-04T19:30:49.136Z,1.63
2023-04-04T19:36:01.209Z,1.77
2023-04-04T19:41:32.439Z,2.07
2023-04-04T19:46:38.160Z,2.50
2023-04-04T19:51:57.652Z,2.47
2023-04-04T19:57:09.538Z,2.27
2023-04-04T20:02:39.104Z,2.83
2023-04-04T20:07:44.876Z,2.67
2023-04-04T20:12:50.573Z,2.30
2023-04-04T20:17:56.143Z,2.57
2023-04-04T20:23:03.884Z,2.37
2023-04-04T20:28:09.638Z,2.07
2023-04-04T20:33:39.211Z,2.40
2023-04-04T20:38:45.163Z,1.97
2023-04-04T20:43:53.286Z,2.20
2023-04-04T20:49:00.261Z,2.30
2023-04-04T20:54:08.209Z,2.13
2023-04-04T20:59:34.668Z,1.97
2023-04-04T21:04:42.145Z,2.20
2023-04-04T21:09:47.704Z,2.57
2023-04-04T21:14:53.360Z,2.13
2023-04-04T21:19:59.235Z,2.30
2023-04-04T21:25:07.813Z,2.53
2023-04-04T21:30:16.269Z,2.63
2023-04-04T21:35:24.743Z,1.93
2023-04-04T21:40:31.665Z,2.60
2023-04-04T21:45:37.081Z,2.60
2023-04-04T21:50:42.686Z,2.03
2023-04-04T21:55:48.403Z,2.13
2023-04-04T22:00:53.939Z,2.20
2023-04-04T22:05:59.610Z,2.07
2023-04-04T22:11:05.993Z,2.10
2023-04-04T22:16:13.114Z,2.63
2023-04-04T22:21:21.106Z,2.77
2023-04-04T22:26:31.122Z,2.47
2023-04-04T22:31:38.018Z,2.53
2023-04-04T22:36:44.134Z,2.60
2023-04-04T22:41:49.800Z,3.00
2023-04-04T22:46:56.961Z,2.43
2023-04-04T22:52:04.037Z,2.47
2023-04-04T22:57:09.725Z,2.70
2023-04-04T23:02:15.177Z,2.40
2023-04-04T23:07:22.107Z,2.20
2023-04-04T23:12:27.711Z,2.30
2023-04-04T23:17:33.719Z,2.00
2023-04-04T23:22:39.993Z,1.97
2023-04-04T23:27:45.841Z,2.00
2023-04-04T23:32:51.526Z,2.10
2023-04-04T23:37:57.038Z,2.03
2023-04-04T23:43:02.536Z,1.60
2023-04-04T23:48:08.229Z,1.60
2023-04-04T23:53:14.271Z,1.90
2023-04-04T23:58:19.702Z,1.90
